Time;durP1;ratioP1;P1;durP2;ratioP2;P2;SDS_P1;SDS_P2;PMS_P1;PMS_P2;Temp;Humidity;BMP_temperature;BMP_pressure;BME280_temperature;BME280_humidity;BME280_pressure;Samples;Min_cycle;Max_cycle;Signal;HPM_P1;HPM_P2
2020/12/01 00:01:49;;;;;;;;;;;0.60;99.90;;;;;;5089136;28;19912;-75
2020/12/01 00:04:15;;;;;;;;;;;0.60;99.90;;;;;;5091276;28;19914;-75
2020/12/01 00:06:41;;;;;;;;;;;0.60;99.90;;;;;;5090789;28;19916;-75
2020/12/01 00:09:06;;;;;;;;;;;0.60;99.90;;;;;;5090750;28;19919;-75
2020/12/01 00:11:31;;;;;;;;;;;0.60;99.90;;;;;;5088646;28;19978;-75
2020/12/01 00:13:57;;;;;;;;;;;0.70;99.90;;;;;;5105151;28;19908;-75
2020/12/01 00:16:22;;;;;;;;;;;0.60;99.90;;;;;;5111461;28;19915;-75
2020/12/01 00:18:48;;;;;;;;;;;0.70;99.90;;;;;;5110785;28;20322;-75
2020/12/01 00:21:14;;;;;;;;;;;0.70;99.90;;;;;;5111508;28;19911;-75
2020/12/01 00:23:40;;;;;;;;;;;0.70;99.90;;;;;;5110891;28;19907;-75
2020/12/01 00:26:06;;;;;;;;;;;0.70;99.90;;;;;;5111429;28;19961;-74
2020/12/01 00:28:31;;;;;;;;;;;0.70;99.90;;;;;;5111045;28;19916;-75
2020/12/01 00:30:57;;;;;;;;;;;0.70;99.90;;;;;;5110605;28;20364;-74
2020/12/01 00:33:23;;;;;;;;;;;0.70;99.90;;;;;;5113519;28;19908;-74
2020/12/01 00:35:48;;;;;;;;;;;0.60;99.90;;;;;;5114063;28;19912;-74
2020/12/01 00:38:14;;;;;;;;;;;0.60;99.90;;;;;;5115012;28;20287;-74
2020/12/01 00:40:39;;;;;;;;;;;0.60;99.90;;;;;;5114465;28;20288;-75
2020/12/01 00:43:04;;;;;;;;;;;0.60;99.90;;;;;;5090784;28;19908;-74
2020/12/01 00:45:30;;;;;;;;;;;0.60;99.90;;;;;;5092255;28;19908;-74
2020/12/01 00:47:55;;;;;;;;;;;0.70;99.90;;;;;;5093010;28;19908;-74
2020/12/01 00:50:22;;;;;;;;;;;0.70;99.90;;;;;;5094354;28;19999;-74
2020/12/01 00:52:48;;;;;;;;;;;0.70;99.90;;;;;;5093794;28;19908;-74
2020/12/01 00:55:13;;;;;;;;;;;0.70;99.90;;;;;;5094274;28;19916;-74
2020/12/01 00:57:38;;;;;;;;;;;0.70;99.90;;;;;;5093413;28;19915;-74
2020/12/01 01:00:09;;;;;;;;;;;0.70;99.90;;;;;;5094011;28;20158;-75
2020/12/01 01:02:34;;;;;;;;;;;0.70;99.90;;;;;;5093598;28;20006;-74
2020/12/01 01:05:00;;;;;;;;;;;0.80;99.90;;;;;;5094436;28;19954;-74
2020/12/01 01:07:25;;;;;;;;;;;0.80;99.90;;;;;;5093341;28;20418;-74
2020/12/01 01:09:51;;;;;;;;;;;0.70;99.90;;;;;;5093965;28;19998;-74
2020/12/01 01:12:16;;;;;;;;;;;0.70;99.90;;;;;;5085620;28;19909;-74
2020/12/01 01:14:42;;;;;;;;;;;0.70;99.90;;;;;;5092978;28;20360;-74
2020/12/01 01:17:07;;;;;;;;;;;0.70;99.90;;;;;;5093651;28;19908;-74
2020/12/01 01:19:33;;;;;;;;;;;0.70;99.90;;;;;;5092086;28;20301;-74
2020/12/01 01:21:58;;;;;;;;;;;0.60;99.90;;;;;;5093917;28;19916;-74
2020/12/01 01:24:24;;;;;;;;;;;0.60;99.90;;;;;;5093239;28;19912;-74
2020/12/01 01:26:50;;;;;;;;;;;0.70;99.90;;;;;;5093814;28;20357;-74
2020/12/01 01:29:16;;;;;;;;;;;0.70;99.90;;;;;;5093042;28;19917;-74
2020/12/01 01:31:42;;;;;;;;;;;0.70;99.90;;;;;;5093520;28;19909;-74
2020/12/01 01:34:07;;;;;;;;;;;0.70;99.90;;;;;;5093695;28;19991;-74
2020/12/01 01:36:33;;;;;;;;;;;0.70;99.90;;;;;;5092678;28;19915;-74
2020/12/01 01:38:59;;;;;;;;;;;0.70;99.90;;;;;;5093393;28;19915;-74
2020/12/01 01:41:28;;;;;;;;;;;0.80;99.90;;;;;;5091393;28;19908;-74
2020/12/01 01:43:53;;;;;;;;;;;0.80;99.90;;;;;;5086184;28;19955;-74
2020/12/01 01:46:37;;;;;;;;;;;0.80;99.90;;;;;;5092429;28;19986;-74
2020/12/01 01:49:04;;;;;;;;;;;0.80;99.90;;;;;;5093231;28;19966;-74
2020/12/01 01:51:30;;;;;;;;;;;0.80;99.90;;;;;;5092859;28;19912;-74
2020/12/01 01:53:56;;;;;;;;;;;0.80;99.90;;;;;;5093041;28;19908;-74
2020/12/01 01:56:29;;;;;;;;;;;0.80;99.90;;;;;;5092653;28;19908;-74
2020/12/01 01:58:56;;;;;;;;;;;0.80;99.90;;;;;;5092728;28;19912;-74
2020/12/01 02:01:24;;;;;;;;;;;0.90;99.90;;;;;;5093109;28;19908;-75
2020/12/01 02:04:03;;;;;;;;;;;0.90;99.90;;;;;;5092339;28;19908;-75
2020/12/01 02:06:51;;;;;;;;;;;0.90;99.90;;;;;;5092303;28;19915;-74
2020/12/01 02:09:31;;;;;;;;;;;0.90;99.90;;;;;;5092218;28;19919;-75
2020/12/01 02:11:58;;;;;;;;;;;0.90;99.90;;;;;;5086643;28;19931;-74
2020/12/01 02:14:28;;;;;;;;;;;0.90;99.90;;;;;;5088579;28;20297;-74
2020/12/01 02:16:59;;;;;;;;;;;0.90;99.90;;;;;;5092798;28;19912;-75
2020/12/01 02:19:26;;;;;;;;;;;0.80;99.90;;;;;;5091976;28;19970;-74
2020/12/01 02:21:53;;;;;;;;;;;0.80;99.90;;;;;;5092501;28;20291;-74
2020/12/01 02:24:20;;;;;;;;;;;0.80;99.90;;;;;;5091823;28;19909;-75
2020/12/01 02:26:48;;;;;;;;;;;0.80;99.90;;;;;;5091716;28;19908;-74
2020/12/01 02:29:16;;;;;;;;;;;0.80;99.90;;;;;;5091059;28;19934;-74
2020/12/01 02:31:42;;;;;;;;;;;0.80;99.90;;;;;;5090183;28;19908;-75
2020/12/01 02:34:09;;;;;;;;;;;0.80;99.90;;;;;;5091113;28;19915;-74
2020/12/01 02:36:34;;;;;;;;;;;0.70;99.90;;;;;;5091347;28;20506;-74
2020/12/01 02:39:01;;;;;;;;;;;0.80;99.90;;;;;;5092011;28;20007;-75
2020/12/01 02:41:26;;;;;;;;;;;0.80;99.90;;;;;;5088530;28;19908;-75
2020/12/01 02:43:52;;;;;;;;;;;0.80;99.90;;;;;;5085210;28;20379;-75
2020/12/01 02:46:18;;;;;;;;;;;0.80;99.90;;;;;;5090728;28;19908;-74
2020/12/01 02:48:44;;;;;;;;;;;0.80;99.90;;;;;;5091816;28;19930;-74
2020/12/01 02:51:09;;;;;;;;;;;0.90;99.90;;;;;;5092029;28;20308;-74
2020/12/01 02:53:35;;;;;;;;;;;0.90;99.90;;;;;;5090997;28;19909;-74
2020/12/01 02:56:00;;;;;;;;;;;0.90;99.90;;;;;;5091034;28;19970;-75
2020/12/01 02:58:26;;;;;;;;;;;0.90;99.90;;;;;;5091187;28;19915;-74
2020/12/01 03:00:51;;;;;;;;;;;0.90;99.90;;;;;;5091545;28;19943;-74
2020/12/01 03:03:17;;;;;;;;;;;0.90;99.90;;;;;;5089895;28;20257;-74
2020/12/01 03:05:42;;;;;;;;;;;0.90;99.90;;;;;;5091332;28;19908;-74
2020/12/01 03:08:07;;;;;;;;;;;0.90;99.90;;;;;;5090985;28;19908;-74
2020/12/01 03:10:33;;;;;;;;;;;0.90;99.90;;;;;;5090359;28;20010;-74
2020/12/01 03:12:58;;;;;;;;;;;0.90;99.90;;;;;;5083001;28;20320;-74
2020/12/01 03:15:24;;;;;;;;;;;0.90;99.90;;;;;;5089329;28;19923;-74
2020/12/01 03:17:49;;;;;;;;;;;1.00;99.90;;;;;;5090070;28;19908;-75
2020/12/01 03:20:15;;;;;;;;;;;1.00;99.90;;;;;;5091030;28;20269;-74
2020/12/01 03:22:40;;;;;;;;;;;1.00;99.90;;;;;;5091163;28;19908;-75
2020/12/01 03:25:06;;;;;;;;;;;0.90;99.90;;;;;;5089491;28;19912;-74
2020/12/01 03:27:31;;;;;;;;;;;0.90;99.90;;;;;;5090579;28;20273;-74
2020/12/01 03:29:57;;;;;;;;;;;0.90;99.90;;;;;;5089978;28;19956;-74
2020/12/01 03:32:23;;;;;;;;;;;0.90;99.90;;;;;;5090610;28;20273;-74
2020/12/01 03:34:50;;;;;;;;;;;0.90;99.90;;;;;;5073663;28;19908;-74
2020/12/01 03:37:15;;;;;;;;;;;1.00;99.90;;;;;;5069682;28;20297;-74
2020/12/01 03:39:41;;;;;;;;;;;1.00;99.90;;;;;;5070489;28;19962;-74
2020/12/01 03:42:06;;;;;;;;;;;1.00;99.90;;;;;;5070462;28;20288;-74
2020/12/01 03:44:32;;;;;;;;;;;1.00;99.90;;;;;;5076413;28;19915;-74
2020/12/01 03:46:57;;;;;;;;;;;1.00;99.90;;;;;;5088395;28;19912;-74
2020/12/01 03:49:23;;;;;;;;;;;1.00;99.90;;;;;;5088261;28;20129;-74
2020/12/01 03:51:48;;;;;;;;;;;1.00;99.90;;;;;;5090101;28;19908;-74
2020/12/01 03:54:14;;;;;;;;;;;1.10;99.90;;;;;;5089764;28;19912;-74
2020/12/01 03:56:39;;;;;;;;;;;1.10;99.90;;;;;;5090781;28;19908;-74
2020/12/01 03:59:05;;;;;;;;;;;1.10;99.90;;;;;;5088996;28;19908;-75
2020/12/01 04:01:30;;;;;;;;;;;1.10;99.90;;;;;;5089877;28;20322;-75
2020/12/01 04:03:56;;;;;;;;;;;1.20;99.90;;;;;;5090382;28;19908;-74
2020/12/01 04:06:21;;;;;;;;;;;1.20;99.90;;;;;;5092615;28;19953;-75
2020/12/01 04:08:46;;;;;;;;;;;1.20;99.90;;;;;;5094630;28;20368;-75
2020/12/01 04:11:12;;;;;;;;;;;1.20;99.90;;;;;;5094925;28;19954;-75
2020/12/01 04:13:37;;;;;;;;;;;1.20;99.90;;;;;;5084307;28;19908;-75
2020/12/01 04:16:03;;;;;;;;;;;1.30;99.90;;;;;;5109595;28;19919;-74
2020/12/01 04:18:29;;;;;;;;;;;1.30;99.90;;;;;;5115175;28;20002;-75
2020/12/01 04:20:54;;;;;;;;;;;1.30;99.90;;;;;;5114421;28;19908;-74
2020/12/01 04:23:19;;;;;;;;;;;1.30;99.90;;;;;;5115000;28;19947;-74
2020/12/01 04:25:45;;;;;;;;;;;1.30;99.90;;;;;;5114303;28;19908;-75
2020/12/01 04:28:10;;;;;;;;;;;1.30;99.90;;;;;;5114338;28;19916;-75
2020/12/01 04:30:36;;;;;;;;;;;1.30;99.90;;;;;;5112510;28;19918;-75
2020/12/01 04:33:01;;;;;;;;;;;1.40;99.90;;;;;;5113410;28;20004;-75
2020/12/01 04:35:28;;;;;;;;;;;1.40;99.90;;;;;;5114140;28;20000;-74
2020/12/01 04:37:56;;;;;;;;;;;1.40;99.90;;;;;;5114508;28;19907;-75
2020/12/01 04:40:25;;;;;;;;;;;1.40;99.90;;;;;;5114665;28;20292;-74
2020/12/01 04:42:51;;;;;;;;;;;1.40;99.90;;;;;;5091837;28;19947;-74
2020/12/01 04:45:17;;;;;;;;;;;1.40;99.90;;;;;;5094158;28;20319;-74
2020/12/01 04:48:08;;;;;;;;;;;1.40;99.90;;;;;;5093434;28;19908;-75
2020/12/01 04:50:37;;;;;;;;;;;1.40;99.90;;;;;;5094009;28;19916;-75
2020/12/01 04:53:22;;;;;;;;;;;1.40;99.90;;;;;;5093479;28;19912;-75
2020/12/01 04:56:05;;;;;;;;;;;1.40;99.90;;;;;;5093697;28;20361;-75
2020/12/01 04:58:31;;;;;;;;;;;1.50;99.90;;;;;;5093511;28;19908;-75
2020/12/01 05:01:11;;;;;;;;;;;1.50;99.90;;;;;;5093879;28;19908;-74
2020/12/01 05:04:06;;;;;;;;;;;1.50;99.90;;;;;;5093492;28;19915;-74
2020/12/01 05:09:30;;;;;;;;;;;1.60;99.90;;;;;;5086565;28;19962;-75
2020/12/01 05:11:58;;;;;;;;;;;1.60;99.90;;;;;;5093592;28;20211;-75
2020/12/01 05:14:35;;;;;;;;;;;1.60;99.90;;;;;;5092946;28;19919;-75
2020/12/01 05:17:20;;;;;;;;;;;1.50;99.90;;;;;;5092444;28;19953;-75
2020/12/01 05:19:46;;;;;;;;;;;1.50;99.90;;;;;;5092868;28;19909;-75
2020/12/01 05:22:13;;;;;;;;;;;1.50;99.90;;;;;;5093532;28;19912;-75
2020/12/01 05:24:44;;;;;;;;;;;1.50;99.90;;;;;;5092326;28;19912;-74
2020/12/01 05:27:23;;;;;;;;;;;1.50;99.90;;;;;;5091760;28;19966;-74
2020/12/01 05:29:53;;;;;;;;;;;1.50;99.90;;;;;;5093277;28;19924;-75
2020/12/01 05:32:33;;;;;;;;;;;1.50;99.90;;;;;;5084082;28;19912;-75
2020/12/01 05:35:07;;;;;;;;;;;1.50;99.90;;;;;;5091413;28;19962;-75
2020/12/01 05:37:33;;;;;;;;;;;1.50;99.90;;;;;;5087744;28;19951;-75
2020/12/01 05:40:03;;;;;;;;;;;1.50;99.90;;;;;;5107467;28;20395;-74
2020/12/01 05:42:29;;;;;;;;;;;1.60;99.90;;;;;;5113293;28;20260;-75
2020/12/01 05:44:56;;;;;;;;;;;1.60;99.90;;;;;;5113799;28;19908;-75
2020/12/01 05:47:26;;;;;;;;;;;1.60;99.90;;;;;;5094865;28;19909;-74
2020/12/01 05:50:11;;;;;;;;;;;1.60;99.90;;;;;;5091142;28;19951;-75
2020/12/01 05:52:53;;;;;;;;;;;1.60;99.90;;;;;;5091007;28;19916;-74
2020/12/01 05:55:24;;;;;;;;;;;1.60;99.90;;;;;;5091633;28;19908;-74
2020/12/01 05:57:55;;;;;;;;;;;1.60;99.90;;;;;;5091721;28;20140;-75
2020/12/01 06:00:23;;;;;;;;;;;1.60;99.90;;;;;;5092741;28;19912;-75
2020/12/01 06:03:13;;;;;;;;;;;1.60;99.90;;;;;;5090680;28;19908;-75
2020/12/01 06:05:40;;;;;;;;;;;1.60;99.90;;;;;;5092546;28;19908;-75
2020/12/01 06:08:22;;;;;;;;;;;1.60;99.90;;;;;;5092670;28;19914;-75
2020/12/01 06:10:53;;;;;;;;;;;1.60;99.90;;;;;;5088826;28;19919;-75
2020/12/01 06:13:29;;;;;;;;;;;1.60;99.90;;;;;;5089346;28;19948;-75
2020/12/01 06:16:00;;;;;;;;;;;1.60;99.90;;;;;;5091672;28;19958;-74
2020/12/01 06:18:43;;;;;;;;;;;1.60;99.90;;;;;;5091557;28;20002;-75
2020/12/01 06:21:08;;;;;;;;;;;1.60;99.90;;;;;;5072701;28;19916;-75
2020/12/01 06:23:43;;;;;;;;;;;1.60;99.90;;;;;;5071791;28;19954;-75
2020/12/01 06:26:27;;;;;;;;;;;1.60;99.90;;;;;;5070958;28;19908;-75
2020/12/01 06:29:07;;;;;;;;;;;1.60;99.90;;;;;;5070372;28;19917;-75
2020/12/01 06:31:49;;;;;;;;;;;1.60;99.90;;;;;;5070784;28;20357;-75
2020/12/01 06:34:34;;;;;;;;;;;1.60;99.90;;;;;;5087239;28;19908;-75
2020/12/01 06:37:17;;;;;;;;;;;1.60;99.90;;;;;;5089368;28;19912;-75
2020/12/01 06:39:56;;;;;;;;;;;1.60;99.90;;;;;;5071711;28;19955;-74
2020/12/01 06:42:34;;;;;;;;;;;1.60;99.90;;;;;;5072161;28;20282;-74
2020/12/01 06:45:06;;;;;;;;;;;1.60;99.90;;;;;;5091930;28;19912;-75
2020/12/01 06:47:32;;;;;;;;;;;1.60;99.90;;;;;;5089735;28;20013;-75
2020/12/01 06:50:04;;;;;;;;;;;1.60;99.90;;;;;;5091862;28;19955;-75
2020/12/01 06:52:30;;;;;;;;;;;1.60;99.90;;;;;;5091569;28;20388;-74
2020/12/01 06:54:57;;;;;;;;;;;1.70;99.90;;;;;;5085696;28;19912;-75
2020/12/01 06:57:23;;;;;;;;;;;1.60;99.90;;;;;;5079839;28;19908;-75
2020/12/01 06:59:48;;;;;;;;;;;1.60;99.90;;;;;;5074766;28;19909;-74
2020/12/01 07:02:34;;;;;;;;;;;1.60;99.90;;;;;;5071497;28;19920;-74
2020/12/01 07:05:02;;;;;;;;;;;1.60;99.90;;;;;;5068828;28;20013;-74
2020/12/01 07:07:29;;;;;;;;;;;1.60;99.90;;;;;;5069797;28;20365;-74
2020/12/01 07:09:55;;;;;;;;;;;1.60;99.90;;;;;;5069314;28;19913;-75
2020/12/01 07:12:29;;;;;;;;;;;1.60;99.90;;;;;;5078537;28;19915;-74
2020/12/01 07:15:13;;;;;;;;;;;1.70;99.90;;;;;;5090866;28;19912;-74
2020/12/01 07:17:43;;;;;;;;;;;1.60;99.90;;;;;;5091211;28;19908;-74
2020/12/01 07:20:15;;;;;;;;;;;1.60;99.90;;;;;;5089744;28;19908;-75
2020/12/01 07:22:44;;;;;;;;;;;1.60;99.90;;;;;;5091592;28;20461;-75
2020/12/01 07:25:13;;;;;;;;;;;1.60;99.90;;;;;;5090957;28;20581;-75
2020/12/01 07:27:51;;;;;;;;;;;1.50;99.90;;;;;;5090785;28;19912;-74
2020/12/01 07:30:19;;;;;;;;;;;1.50;99.90;;;;;;5090868;28;19935;-75
2020/12/01 07:32:48;;;;;;;;;;;1.50;99.90;;;;;;5083109;28;19912;-75
2020/12/01 07:35:31;;;;;;;;;;;1.50;99.90;;;;;;5090622;28;19908;-75
2020/12/01 07:38:02;;;;;;;;;;;1.50;99.90;;;;;;5079165;28;19908;-74
2020/12/01 07:40:30;;;;;;;;;;;1.50;99.90;;;;;;5085599;28;19915;-75
2020/12/01 07:43:03;;;;;;;;;;;1.60;99.90;;;;;;5085476;28;19914;-75
2020/12/01 07:45:30;;;;;;;;;;;1.60;99.90;;;;;;5088529;28;19919;-75
2020/12/01 07:47:57;;;;;;;;;;;1.60;99.90;;;;;;5090497;28;19991;-75
2020/12/01 07:50:22;;;;;;;;;;;1.70;99.90;;;;;;5091130;28;19912;-75
2020/12/01 07:52:52;;;;;;;;;;;1.70;99.90;;;;;;5090912;28;19912;-75
2020/12/01 07:55:38;;;;;;;;;;;1.70;99.90;;;;;;5091227;28;20002;-74
2020/12/01 07:58:05;;;;;;;;;;;1.70;99.90;;;;;;5090217;28;19982;-74
2020/12/01 08:00:31;;;;;;;;;;;1.70;99.90;;;;;;5089837;28;19953;-75
2020/12/01 08:03:16;;;;;;;;;;;1.70;99.90;;;;;;5084506;28;19912;-75
2020/12/01 08:05:41;;;;;;;;;;;1.70;99.90;;;;;;5090589;28;19915;-75
2020/12/01 08:08:13;;;;;;;;;;;1.70;99.90;;;;;;5089376;28;20475;-75
2020/12/01 08:10:38;;;;;;;;;;;1.70;99.90;;;;;;5090956;28;19920;-75
2020/12/01 08:13:05;;;;;;;;;;;1.70;99.90;;;;;;5091124;28;20288;-74
2020/12/01 08:15:31;;;;;;;;;;;1.70;99.90;;;;;;5090448;28;19912;-75
2020/12/01 08:18:00;;;;;;;;;;;1.70;99.90;;;;;;5091093;28;19970;-75
2020/12/01 08:20:26;;;;;;;;;;;1.70;99.90;;;;;;5089603;28;20376;-75
2020/12/01 08:22:57;;;;;;;;;;;1.80;99.90;;;;;;5091123;28;19908;-75
2020/12/01 08:25:26;;;;;;;;;;;1.80;99.90;;;;;;5090377;28;19915;-74
2020/12/01 08:28:02;;;;;;;;;;;1.80;99.90;;;;;;5090504;28;19912;-75
2020/12/01 08:30:43;;;;;;;;;;;1.90;99.90;;;;;;5090173;28;19970;-75
2020/12/01 08:33:13;;;;;;;;;;;1.90;99.90;;;;;;5083587;28;20028;-75
2020/12/01 08:35:42;;;;;;;;;;;1.90;99.90;;;;;;5090158;28;19935;-75
2020/12/01 08:38:10;;;;;;;;;;;1.90;99.90;;;;;;5089539;28;19931;-75
2020/12/01 08:40:49;;;;;;;;;;;2.00;99.90;;;;;;5085289;28;20003;-75
2020/12/01 08:43:32;;;;;;;;;;;2.00;99.90;;;;;;5087328;28;19918;-75
2020/12/01 08:46:09;;;;;;;;;;;2.00;99.90;;;;;;5090301;28;20335;-75
2020/12/01 08:48:38;;;;;;;;;;;2.10;99.90;;;;;;5090302;28;19908;-75
2020/12/01 08:51:16;;;;;;;;;;;2.10;99.90;;;;;;5090519;28;19912;-75
2020/12/01 08:53:43;;;;;;;;;;;2.20;99.90;;;;;;5091229;28;20055;-75
2020/12/01 08:56:15;;;;;;;;;;;2.30;99.90;;;;;;5090257;28;20250;-75
2020/12/01 08:58:42;;;;;;;;;;;2.30;99.90;;;;;;5092678;28;20277;-75
2020/12/01 09:01:12;;;;;;;;;;;2.30;99.90;;;;;;5093334;28;20334;-75
2020/12/01 09:03:52;;;;;;;;;;;2.30;99.90;;;;;;5087457;28;19912;-75
2020/12/01 09:06:23;;;;;;;;;;;2.40;99.90;;;;;;5093804;28;20314;-75
2020/12/01 09:08:54;;;;;;;;;;;2.40;99.90;;;;;;5092182;28;19908;-75
2020/12/01 09:14:02;;;;;;;;;;;2.50;99.90;;;;;;5086723;28;19908;-75
2020/12/01 09:21:55;;;;;;;;;;;2.50;99.90;;;;;;5093741;28;19912;-74
2020/12/01 09:24:25;;;;;;;;;;;2.50;99.90;;;;;;5091836;28;20018;-75
2020/12/01 09:27:01;;;;;;;;;;;2.40;99.90;;;;;;5093221;28;20380;-75
2020/12/01 09:29:26;;;;;;;;;;;2.40;99.90;;;;;;5092958;28;20445;-75
2020/12/01 09:31:52;;;;;;;;;;;2.40;99.90;;;;;;5090023;28;19998;-75
2020/12/01 09:34:17;;;;;;;;;;;2.40;99.90;;;;;;5091971;28;19908;-75
2020/12/01 09:36:43;;;;;;;;;;;2.40;99.90;;;;;;5084273;28;19918;-75
2020/12/01 09:39:08;;;;;;;;;;;2.40;99.90;;;;;;5092114;28;19914;-75
2020/12/01 09:41:34;;;;;;;;;;;2.40;99.90;;;;;;5081283;28;19971;-75
2020/12/01 09:46:33;;;;;;;;;;;2.30;99.90;;;;;;5092549;28;19908;-75
2020/12/01 09:49:02;;;;;;;;;;;2.20;99.90;;;;;;5093206;28;19916;-75
2020/12/01 09:51:29;;;;;;;;;;;2.20;99.90;;;;;;5092708;28;20220;-75
2020/12/01 09:56:41;;;;;;;;;;;2.30;99.90;;;;;;5092817;28;19949;-75
2020/12/01 10:04:58;;;;;;;;;;;2.30;99.90;;;;;;5091569;28;19916;-75
2020/12/01 10:10:24;;;;;;;;;;;2.30;99.90;;;;;;5113015;28;20307;-75
2020/12/01 10:13:00;;;;;;;;;;;2.30;99.90;;;;;;5111666;28;19994;-75
2020/12/01 10:15:48;;;;;;;;;;;2.30;99.90;;;;;;5112784;28;19908;-74
2020/12/01 10:32:03;;;;;;;;;;;2.20;99.90;;;;;;5112496;28;20287;-75
2020/12/01 10:34:23;;;;;;;;;;;2.20;99.90;;;;;;5110536;28;19911;-75
2020/12/01 10:36:53;;;;;;;;;;;2.30;99.90;;;;;;5083055;28;20322;-75
2020/12/01 10:39:19;;;;;;;;;;;2.30;99.90;;;;;;5090357;28;19998;-75
2020/12/01 10:41:45;;;;;;;;;;;2.40;99.90;;;;;;5089989;28;19991;-75
2020/12/01 10:44:10;;;;;;;;;;;2.40;99.90;;;;;;5090762;28;19909;-75
2020/12/01 10:46:36;;;;;;;;;;;2.40;99.90;;;;;;5091358;28;19939;-75
2020/12/01 10:49:01;;;;;;;;;;;2.40;99.90;;;;;;5092017;28;19912;-75
2020/12/01 10:51:27;;;;;;;;;;;2.50;99.90;;;;;;5091625;28;19920;-75
2020/12/01 10:53:52;;;;;;;;;;;2.50;99.90;;;;;;5090343;28;20408;-75
2020/12/01 10:56:18;;;;;;;;;;;2.50;99.90;;;;;;5091571;28;19914;-75
2020/12/01 10:58:43;;;;;;;;;;;2.60;99.90;;;;;;5091316;28;19916;-75
2020/12/01 11:01:09;;;;;;;;;;;2.60;99.90;;;;;;5091836;28;19904;-74
2020/12/01 11:03:34;;;;;;;;;;;2.60;99.90;;;;;;5089895;28;20326;-75
2020/12/01 11:06:00;;;;;;;;;;;2.60;99.90;;;;;;5083122;28;19974;-74
2020/12/01 11:08:25;;;;;;;;;;;2.60;99.90;;;;;;5089573;28;20383;-75
2020/12/01 11:10:52;;;;;;;;;;;2.60;99.90;;;;;;5091487;28;19912;-75
2020/12/01 11:13:18;;;;;;;;;;;2.60;99.90;;;;;;5091127;28;19991;-75
2020/12/01 11:15:43;;;;;;;;;;;2.60;99.90;;;;;;5090632;28;20012;-75
2020/12/01 11:18:09;;;;;;;;;;;2.60;99.90;;;;;;5091543;28;19915;-75
2020/12/01 11:20:34;;;;;;;;;;;2.60;99.90;;;;;;5091270;28;19934;-75
2020/12/01 11:23:00;;;;;;;;;;;2.60;99.90;;;;;;5091214;28;19908;-75
2020/12/01 11:25:26;;;;;;;;;;;2.60;99.90;;;;;;5091097;28;19908;-75
2020/12/01 11:27:51;;;;;;;;;;;2.60;99.90;;;;;;5089653;28;19912;-75
2020/12/01 11:30:18;;;;;;;;;;;2.60;99.90;;;;;;5090894;28;19912;-75
2020/12/01 11:32:44;;;;;;;;;;;2.60;99.90;;;;;;5091404;28;19914;-75
2020/12/01 11:35:09;;;;;;;;;;;2.60;99.90;;;;;;5083316;28;19909;-75
2020/12/01 11:37:35;;;;;;;;;;;2.70;99.90;;;;;;5088691;28;19915;-75
2020/12/01 11:40:00;;;;;;;;;;;2.70;99.90;;;;;;5084144;28;19908;-75
2020/12/01 11:42:26;;;;;;;;;;;2.70;99.90;;;;;;5088943;28;19915;-75
2020/12/01 11:44:51;;;;;;;;;;;2.70;99.90;;;;;;5089978;28;19957;-75
2020/12/01 11:47:17;;;;;;;;;;;2.70;99.90;;;;;;5090755;28;20010;-75
2020/12/01 11:49:42;;;;;;;;;;;2.70;99.90;;;;;;5091077;28;19912;-75
2020/12/01 11:52:08;;;;;;;;;;;2.70;99.90;;;;;;5090560;28;19914;-75
2020/12/01 11:54:33;;;;;;;;;;;2.70;99.90;;;;;;5091235;28;19915;-75
2020/12/01 11:56:59;;;;;;;;;;;2.80;99.90;;;;;;5090649;28;19908;-75
2020/12/01 11:59:24;;;;;;;;;;;2.80;99.90;;;;;;5091080;28;19912;-75
2020/12/01 12:01:50;;;;;;;;;;;2.80;99.90;;;;;;5090934;28;19908;-75
2020/12/01 12:04:15;;;;;;;;;;;2.90;99.90;;;;;;5090858;28;19908;-75
2020/12/01 12:06:41;;;;;;;;;;;2.90;99.90;;;;;;5082099;28;19908;-75
2020/12/01 12:09:07;;;;;;;;;;;2.80;99.90;;;;;;5080211;28;19919;-75
2020/12/01 12:11:33;;;;;;;;;;;2.80;99.90;;;;;;5089418;28;19908;-75
2020/12/01 12:13:59;;;;;;;;;;;2.90;99.90;;;;;;5089150;28;19962;-75
2020/12/01 12:16:25;;;;;;;;;;;2.80;99.90;;;;;;5089436;28;19950;-75
2020/12/01 12:18:51;;;;;;;;;;;2.80;99.90;;;;;;5090465;28;20311;-75
2020/12/01 12:21:18;;;;;;;;;;;2.80;99.90;;;;;;5090709;28;19909;-75
2020/12/01 12:23:44;;;;;;;;;;;2.80;99.90;;;;;;5089792;28;19966;-75
2020/12/01 12:26:09;;;;;;;;;;;2.80;99.90;;;;;;5089292;28;20356;-75
2020/12/01 12:28:35;;;;;;;;;;;2.80;99.90;;;;;;5093302;28;19919;-75
2020/12/01 12:31:02;;;;;;;;;;;2.90;99.90;;;;;;5094079;28;19919;-75
2020/12/01 12:33:28;;;;;;;;;;;3.00;99.90;;;;;;5094654;28;19908;-75
2020/12/01 12:35:54;;;;;;;;;;;3.00;99.90;;;;;;5085169;28;20108;-75
2020/12/01 12:38:20;;;;;;;;;;;3.10;99.90;;;;;;5093060;28;20014;-75
2020/12/01 12:40:47;;;;;;;;;;;3.00;99.90;;;;;;5080626;28;19951;-74
2020/12/01 12:43:15;;;;;;;;;;;3.00;99.90;;;;;;5089250;28;19909;-75
2020/12/01 12:45:41;;;;;;;;;;;3.00;99.90;;;;;;5093929;28;19908;-75
2020/12/01 12:48:07;;;;;;;;;;;3.10;99.90;;;;;;5094145;28;19908;-75
2020/12/01 12:50:33;;;;;;;;;;;3.10;99.90;;;;;;5092678;28;19959;-75
2020/12/01 12:52:58;;;;;;;;;;;3.10;99.90;;;;;;5093822;28;19912;-75
2020/12/01 12:55:24;;;;;;;;;;;3.10;99.90;;;;;;5094197;28;19912;-75
2020/12/01 12:57:49;;;;;;;;;;;3.10;99.90;;;;;;5093400;28;19912;-75
2020/12/01 13:00:14;;;;;;;;;;;3.00;99.90;;;;;;5092913;28;20125;-75
2020/12/01 13:02:40;;;;;;;;;;;3.10;99.90;;;;;;5092165;28;19913;-75
2020/12/01 13:05:06;;;;;;;;;;;3.10;99.90;;;;;;5086654;28;19909;-75
2020/12/01 13:07:31;;;;;;;;;;;3.10;99.90;;;;;;5091975;28;19934;-75
2020/12/01 13:09:57;;;;;;;;;;;3.10;99.90;;;;;;5087679;28;19912;-75
2020/12/01 13:12:22;;;;;;;;;;;3.20;99.90;;;;;;5093793;28;19908;-75
2020/12/01 13:14:48;;;;;;;;;;;3.30;99.90;;;;;;5093455;28;19947;-75
2020/12/01 13:17:13;;;;;;;;;;;3.30;99.90;;;;;;5093627;28;19908;-75
2020/12/01 13:19:39;;;;;;;;;;;3.40;99.90;;;;;;5093527;28;20264;-75
2020/12/01 13:22:04;;;;;;;;;;;3.40;99.90;;;;;;5093853;28;19912;-75
2020/12/01 13:24:30;;;;;;;;;;;3.40;99.90;;;;;;5093347;28;20004;-75
2020/12/01 13:26:55;;;;;;;;;;;3.40;99.90;;;;;;5093507;28;19965;-75
2020/12/01 13:29:21;;;;;;;;;;;3.40;99.90;;;;;;5092995;28;19923;-75
2020/12/01 13:31:47;;;;;;;;;;;3.40;99.90;;;;;;5093513;28;20344;-75
2020/12/01 13:34:13;;;;;;;;;;;3.40;99.90;;;;;;5093375;28;19916;-75
2020/12/01 13:36:39;;;;;;;;;;;3.40;99.90;;;;;;5092874;28;19908;-75
2020/12/01 13:39:04;;;;;;;;;;;3.40;99.90;;;;;;5085911;28;19912;-75
2020/12/01 13:41:30;;;;;;;;;;;3.40;99.90;;;;;;5072905;28;19916;-75
2020/12/01 13:43:55;;;;;;;;;;;3.40;99.90;;;;;;5079842;28;19908;-75
2020/12/01 13:46:21;;;;;;;;;;;3.50;99.90;;;;;;5090955;28;20445;-75
2020/12/01 13:48:46;;;;;;;;;;;3.50;99.90;;;;;;5092898;28;19908;-75
2020/12/01 13:51:12;;;;;;;;;;;3.60;99.90;;;;;;5092925;28;19914;-75
2020/12/01 13:53:37;;;;;;;;;;;3.60;99.90;;;;;;5093221;28;19961;-75
2020/12/01 13:56:03;;;;;;;;;;;3.60;99.90;;;;;;5091491;28;19944;-75
2020/12/01 13:58:28;;;;;;;;;;;3.70;99.90;;;;;;5092606;28;19912;-75
2020/12/01 14:00:54;;;;;;;;;;;3.80;99.90;;;;;;5092028;28;19912;-75
2020/12/01 14:03:19;;;;;;;;;;;3.90;99.90;;;;;;5092275;28;20420;-75
2020/12/01 14:05:45;;;;;;;;;;;4.00;99.90;;;;;;5091705;28;20011;-75
2020/12/01 14:08:10;;;;;;;;;;;4.00;99.90;;;;;;5093055;28;20366;-75
2020/12/01 14:10:36;;;;;;;;;;;4.00;99.90;;;;;;5085934;28;19959;-75
2020/12/01 14:13:02;;;;;;;;;;;3.90;99.90;;;;;;5092301;28;19908;-75
2020/12/01 14:15:30;;;;;;;;;;;3.90;99.90;;;;;;5092752;28;19908;-75
2020/12/01 14:17:55;;;;;;;;;;;3.90;99.90;;;;;;5092237;28;19994;-75
2020/12/01 14:20:21;;;;;;;;;;;3.90;99.90;;;;;;5092325;28;19961;-75
2020/12/01 14:22:46;;;;;;;;;;;3.90;99.90;;;;;;5089337;28;19912;-75
2020/12/01 14:25:14;;;;;;;;;;;3.90;99.90;;;;;;5090372;28;20384;-75
2020/12/01 14:27:39;;;;;;;;;;;4.00;99.90;;;;;;5086404;28;19920;-75
2020/12/01 14:30:06;;;;;;;;;;;4.00;99.90;;;;;;5070649;28;20659;-75
2020/12/01 14:32:31;;;;;;;;;;;4.00;99.90;;;;;;5071837;28;19909;-75
2020/12/01 14:34:57;;;;;;;;;;;4.10;99.90;;;;;;5071797;28;20424;-75
2020/12/01 14:37:22;;;;;;;;;;;4.10;99.90;;;;;;5072124;28;19962;-75
2020/12/01 14:39:49;;;;;;;;;;;4.10;99.90;;;;;;5085159;28;19979;-75
2020/12/01 14:42:16;;;;;;;;;;;4.00;99.90;;;;;;5087951;28;19912;-75
2020/12/01 14:44:42;;;;;;;;;;;4.00;99.90;;;;;;5090931;28;19920;-75
2020/12/01 14:47:26;;;;;;;;;;;4.00;99.90;;;;;;5089808;28;20104;-75
2020/12/01 14:49:54;;;;;;;;;;;4.00;99.90;;;;;;5091031;28;19977;-75
2020/12/01 14:52:40;;;;;;;;;;;4.00;99.90;;;;;;5089990;28;20275;-75
2020/12/01 14:55:14;;;;;;;;;;;3.90;99.90;;;;;;5091950;28;19908;-75
2020/12/01 14:57:58;;;;;;;;;;;3.90;99.90;;;;;;5091091;28;19909;-75
2020/12/01 15:00:25;;;;;;;;;;;3.80;99.90;;;;;;5091820;28;20369;-75
2020/12/01 15:03:17;;;;;;;;;;;3.80;99.90;;;;;;5091455;28;20361;-75
2020/12/01 15:05:55;;;;;;;;;;;3.80;99.90;;;;;;5067105;28;20246;-75
2020/12/01 15:08:32;;;;;;;;;;;3.70;99.90;;;;;;5088477;28;19908;-75
2020/12/01 15:11:03;;;;;;;;;;;3.70;99.90;;;;;;5091877;28;19912;-75
2020/12/01 15:13:29;;;;;;;;;;;3.70;99.90;;;;;;5091560;28;19912;-75
2020/12/01 15:15:55;;;;;;;;;;;3.60;99.90;;;;;;5091318;28;20386;-75
2020/12/01 15:18:22;;;;;;;;;;;3.60;99.90;;;;;;5090782;28;20002;-75